createdAt,value
2022-12-09T00:02:18.047Z,8.20
2022-12-09T00:04:46.887Z,8.10
2022-12-09T00:07:15.597Z,8.30
2022-12-09T00:09:44.266Z,7.83
2022-12-09T00:12:12.747Z,7.80
2022-12-09T00:14:41.265Z,8.80
2022-12-09T00:17:09.841Z,8.57
2022-12-09T00:19:38.670Z,9.40
2022-12-09T00:22:07.446Z,8.30
2022-12-09T00:24:36.200Z,8.83
2022-12-09T00:27:04.746Z,9.60
2022-12-09T00:29:33.274Z,8.63
2022-12-09T00:32:01.899Z,9.97
2022-12-09T00:34:30.547Z,9.43
2022-12-09T00:36:59.089Z,8.57
2022-12-09T00:39:27.555Z,8.83
2022-12-09T00:41:56.004Z,9.23
2022-12-09T00:44:24.559Z,9.53
2022-12-09T00:46:53.023Z,9.03
2022-12-09T00:49:21.761Z,8.57
2022-12-09T00:51:50.397Z,9.47
2022-12-09T00:54:19.260Z,8.50
2022-12-09T00:56:47.811Z,8.67
2022-12-09T00:59:16.499Z,9.30
2022-12-09T01:01:45.202Z,8.53
2022-12-09T01:04:14.021Z,8.17
2022-12-09T01:06:42.800Z,8.73
2022-12-09T01:09:11.666Z,8.53
2022-12-09T01:11:40.484Z,8.57
2022-12-09T01:14:09.028Z,8.20
2022-12-09T01:16:38.193Z,9.13
2022-12-09T01:19:13.099Z,7.93
2022-12-09T01:21:41.594Z,8.13
2022-12-09T01:24:13.658Z,9.23
2022-12-09T01:26:42.213Z,8.73
2022-12-09T01:29:10.972Z,9.40
2022-12-09T01:31:39.964Z,8.83
2022-12-09T01:34:08.763Z,8.23
2022-12-09T01:36:37.520Z,8.60
2022-12-09T01:39:07.635Z,7.23
2022-12-09T01:41:36.292Z,8.27
2022-12-09T01:44:25.469Z,9.07
2022-12-09T01:47:00.383Z,8.30
2022-12-09T01:49:43.311Z,10.43
2022-12-09T01:52:22.532Z,9.23
2022-12-09T01:54:53.478Z,9.30
2022-12-09T01:57:22.193Z,9.77
2022-12-09T01:59:52.884Z,11.03
2022-12-09T02:02:22.396Z,10.17
2022-12-09T02:04:51.793Z,10.20
2022-12-09T02:07:21.158Z,11.37
2022-12-09T02:09:53.210Z,10.37
2022-12-09T02:13:07.214Z,11.00
2022-12-09T02:15:59.737Z,12.80
2022-12-09T02:18:30.919Z,12.73
2022-12-09T02:21:25.969Z,11.83
2022-12-09T02:24:17.952Z,12.53
2022-12-09T02:27:06.435Z,11.30
2022-12-09T02:30:35.808Z,10.47
2022-12-09T02:33:07.927Z,11.23
2022-12-09T02:36:13.043Z,10.73
2022-12-09T02:38:43.886Z,9.87
2022-12-09T02:41:17.843Z,11.80
2022-12-09T02:43:52.085Z,11.17
2022-12-09T02:46:22.996Z,11.73
2022-12-09T02:48:57.966Z,11.07
2022-12-09T02:51:31.741Z,11.27
2022-12-09T02:54:08.370Z,10.37
2022-12-09T02:56:37.312Z,11.13
2022-12-09T02:59:05.886Z,10.97
2022-12-09T03:02:19.853Z,11.53
2022-12-09T03:05:00.533Z,11.80
2022-12-09T03:07:47.908Z,10.23
2022-12-09T03:10:52.367Z,10.60
2022-12-09T03:13:44.438Z,10.43
2022-12-09T03:16:33.481Z,9.53
2022-12-09T03:19:30.667Z,9.63
2022-12-09T03:22:02.804Z,10.97
2022-12-09T03:24:40.147Z,10.23
2022-12-09T03:27:14.490Z,11.20
2022-12-09T03:29:48.392Z,10.80
2022-12-09T03:32:18.243Z,11.43
2022-12-09T03:34:49.411Z,11.77
2022-12-09T03:37:20.191Z,10.67
2022-12-09T03:39:51.495Z,10.67
2022-12-09T03:42:28.426Z,11.83
2022-12-09T03:45:05.486Z,11.17
2022-12-09T03:47:34.897Z,10.63
2022-12-09T03:50:04.115Z,10.97
2022-12-09T03:52:42.586Z,10.47
2022-12-09T03:55:19.831Z,10.47
2022-12-09T03:57:52.386Z,10.70
2022-12-09T04:00:21.092Z,10.77
2022-12-09T04:02:49.998Z,11.10
2022-12-09T04:05:18.655Z,10.40
2022-12-09T04:07:47.241Z,10.20
2022-12-09T04:10:16.144Z,9.90
2022-12-09T04:12:44.606Z,9.50
2022-12-09T04:15:13.348Z,9.60
2022-12-09T04:17:41.923Z,9.43
2022-12-09T04:20:11.107Z,9.63
2022-12-09T04:22:39.850Z,10.37
2022-12-09T04:25:08.819Z,9.67
2022-12-09T04:27:37.596Z,10.03
2022-12-09T04:30:07.573Z,8.93
2022-12-09T04:32:37.107Z,9.73
2022-12-09T04:35:06.272Z,8.83
2022-12-09T04:37:35.092Z,9.23
2022-12-09T04:40:04.021Z,10.00
2022-12-09T04:42:32.709Z,9.73
2022-12-09T04:45:01.498Z,10.93
2022-12-09T04:47:29.992Z,10.27
2022-12-09T04:49:58.451Z,11.30
2022-12-09T04:52:27.030Z,10.40
2022-12-09T04:54:55.771Z,10.07
2022-12-09T04:57:36.558Z,10.37
2022-12-09T05:00:07.725Z,9.67
2022-12-09T05:02:36.466Z,10.63
2022-12-09T05:05:05.744Z,10.20
2022-12-09T05:07:34.567Z,10.50
2022-12-09T05:10:03.946Z,9.33
2022-12-09T05:12:34.941Z,10.17
2022-12-09T05:15:03.529Z,9.20
2022-12-09T05:17:32.473Z,10.07
2022-12-09T05:20:00.970Z,10.13
2022-12-09T05:22:29.836Z,10.67
2022-12-09T05:24:58.362Z,10.67
2022-12-09T05:27:27.136Z,11.33
2022-12-09T05:29:55.945Z,11.07
2022-12-09T05:32:24.670Z,12.53
2022-12-09T05:34:53.386Z,12.30
2022-12-09T05:37:22.282Z,11.67
2022-12-09T05:39:50.843Z,12.40
2022-12-09T05:42:19.537Z,11.63
2022-12-09T05:44:48.264Z,10.87
2022-12-09T05:47:17.011Z,12.57
2022-12-09T05:49:46.123Z,11.90
2022-12-09T05:52:15.698Z,12.57
2022-12-09T05:54:44.567Z,11.50
2022-12-09T05:57:13.153Z,11.70
2022-12-09T05:59:42.146Z,11.27
2022-12-09T06:02:11.017Z,12.83
2022-12-09T06:04:40.171Z,12.53
2022-12-09T06:07:08.842Z,12.70
2022-12-09T06:09:37.968Z,12.27
2022-12-09T06:12:07.225Z,12.43
2022-12-09T06:14:36.021Z,12.93
2022-12-09T06:17:04.720Z,11.10
2022-12-09T06:19:33.511Z,12.10
2022-12-09T06:22:02.163Z,13.37
2022-12-09T06:24:30.868Z,12.40
2022-12-09T06:26:59.612Z,12.73
2022-12-09T06:29:28.221Z,11.70
2022-12-09T06:31:56.938Z,12.07
2022-12-09T06:34:25.659Z,11.70
2022-12-09T06:36:54.868Z,12.43
2022-12-09T06:39:23.452Z,12.43
2022-12-09T06:41:52.193Z,11.93
2022-12-09T06:44:23.817Z,12.10
2022-12-09T06:46:53.153Z,12.37
2022-12-09T06:49:22.216Z,11.77
2022-12-09T06:51:50.760Z,12.83
2022-12-09T06:54:19.352Z,11.67
2022-12-09T06:56:47.921Z,11.27
2022-12-09T06:59:17.481Z,12.27
2022-12-09T07:01:46.843Z,10.37
2022-12-09T07:04:16.303Z,11.77
2022-12-09T07:06:47.122Z,12.80
2022-12-09T07:09:22.022Z,12.53
2022-12-09T07:11:51.590Z,12.63
2022-12-09T07:14:22.099Z,12.00
2022-12-09T07:16:50.777Z,12.23
2022-12-09T07:19:22.423Z,11.60
2022-12-09T07:21:52.443Z,10.47
2022-12-09T07:24:21.491Z,11.57
2022-12-09T07:26:50.806Z,11.07
2022-12-09T07:29:20.148Z,12.07
2022-12-09T07:31:49.596Z,11.30
2022-12-09T07:34:18.789Z,10.90
2022-12-09T07:36:48.195Z,11.03
2022-12-09T07:39:19.272Z,11.33
2022-12-09T07:41:48.763Z,11.57
2022-12-09T07:44:18.075Z,12.60
2022-12-09T07:46:47.070Z,11.97
2022-12-09T07:49:16.155Z,10.70
2022-12-09T07:51:45.365Z,12.50
2022-12-09T07:54:16.397Z,11.63
2022-12-09T07:56:45.802Z,11.50
2022-12-09T07:59:16.093Z,11.20
2022-12-09T08:01:45.408Z,13.17
2022-12-09T08:04:14.528Z,11.93
2022-12-09T08:06:43.559Z,11.43
2022-12-09T08:09:14.823Z,11.73
2022-12-09T08:11:43.518Z,12.13
2022-12-09T08:14:13.745Z,12.73
2022-12-09T08:16:44.672Z,13.33
2022-12-09T08:19:13.981Z,13.33
2022-12-09T08:21:43.518Z,13.20
2022-12-09T08:24:13.821Z,13.17
2022-12-09T08:26:42.660Z,13.17
2022-12-09T08:29:14.590Z,12.83
2022-12-09T08:31:45.164Z,14.13
2022-12-09T08:34:19.237Z,12.27
2022-12-09T08:36:47.843Z,12.77
2022-12-09T08:39:17.507Z,13.07
2022-12-09T08:41:46.155Z,12.60
2022-12-09T08:44:21.033Z,13.37
2022-12-09T08:46:52.923Z,13.23
2022-12-09T08:49:24.275Z,13.77
2022-12-09T08:51:57.522Z,13.50
2022-12-09T08:54:26.278Z,13.30
2022-12-09T08:56:57.722Z,13.57
2022-12-09T08:59:26.949Z,14.03
2022-12-09T09:01:55.676Z,13.97
2022-12-09T09:04:24.483Z,12.40
2022-12-09T09:06:54.186Z,13.33
2022-12-09T09:09:23.640Z,12.73
2022-12-09T09:11:52.631Z,11.90
2022-12-09T09:14:21.904Z,12.17
2022-12-09T09:16:50.801Z,12.63
2022-12-09T09:19:22.954Z,11.13
2022-12-09T09:21:52.458Z,12.03
2022-12-09T09:24:24.477Z,13.00
2022-12-09T09:26:54.306Z,13.00
2022-12-09T09:29:24.947Z,11.83
2022-12-09T09:31:55.661Z,11.53
2022-12-09T09:34:27.094Z,12.63
2022-12-09T09:36:57.825Z,12.07
2022-12-09T09:39:26.875Z,12.40
2022-12-09T09:42:08.201Z,11.50
2022-12-09T09:44:48.740Z,11.33
2022-12-09T09:47:38.797Z,11.30
2022-12-09T09:50:11.138Z,12.43
2022-12-09T09:52:42.710Z,11.00
2022-12-09T09:55:20.055Z,11.57
2022-12-09T09:57:56.284Z,11.77
2022-12-09T10:00:28.720Z,11.73
2022-12-09T10:03:44.997Z,11.80
2022-12-09T10:06:33.073Z,11.50
2022-12-09T10:09:48.077Z,12.23
2022-12-09T10:12:28.551Z,13.37
2022-12-09T10:15:14.353Z,13.73
2022-12-09T10:18:14.665Z,14.43
2022-12-09T10:20:44.148Z,13.63
2022-12-09T10:23:16.330Z,13.00
2022-12-09T10:25:59.561Z,14.50
2022-12-09T10:28:35.361Z,15.33
2022-12-09T10:31:04.631Z,16.23
2022-12-09T10:33:39.996Z,16.10
2022-12-09T10:36:23.453Z,16.23
2022-12-09T10:38:52.504Z,15.97
2022-12-09T10:42:09.830Z,16.00
2022-12-09T10:44:39.009Z,15.10
2022-12-09T10:47:26.026Z,15.63
2022-12-09T10:49:56.441Z,20.13
2022-12-09T10:52:30.349Z,22.30
2022-12-09T10:54:59.609Z,17.80
2022-12-09T10:57:31.305Z,16.03
2022-12-09T11:00:34.633Z,15.47
2022-12-09T11:03:03.941Z,15.03
2022-12-09T11:05:34.927Z,14.23
2022-12-09T11:08:04.184Z,14.30
2022-12-09T11:10:33.472Z,14.00
2022-12-09T11:13:08.935Z,13.07
2022-12-09T11:15:47.944Z,13.03
2022-12-09T11:18:26.723Z,14.57
2022-12-09T11:21:06.156Z,13.50
2022-12-09T11:23:36.898Z,14.07
2022-12-09T11:26:11.690Z,13.77
2022-12-09T11:28:41.992Z,13.40
2022-12-09T11:31:31.772Z,13.23
2022-12-09T11:34:06.599Z,13.03
2022-12-09T11:36:42.357Z,12.13
2022-12-09T11:39:21.467Z,12.97
2022-12-09T11:42:18.976Z,13.83
2022-12-09T11:45:05.566Z,13.30
2022-12-09T11:48:22.564Z,14.07
2022-12-09T11:50:34.551Z,13.63
2022-12-09T11:53:34.212Z,13.97
2022-12-09T11:56:25.765Z,13.43
2022-12-09T11:59:11.044Z,12.70
2022-12-09T12:02:01.599Z,14.07
2022-12-09T12:04:40.083Z,14.10
2022-12-09T12:07:23.210Z,15.13
2022-12-09T12:09:59.117Z,12.73
2022-12-09T12:13:05.407Z,13.50
2022-12-09T12:16:13.557Z,13.67
2022-12-09T12:19:00.895Z,14.60
2022-12-09T12:21:53.411Z,13.53
2022-12-09T12:24:58.433Z,13.97
2022-12-09T12:27:41.390Z,14.23
2022-12-09T12:30:40.936Z,14.17
2022-12-09T12:36:44.328Z,15.63
2022-12-09T12:39:42.266Z,18.23
2022-12-09T12:42:34.286Z,16.50
2022-12-09T12:45:32.785Z,14.60
2022-12-09T12:48:16.292Z,14.17
2022-12-09T12:51:54.488Z,13.77
2022-12-09T12:54:38.026Z,14.40
2022-12-09T12:57:18.090Z,13.10
2022-12-09T12:59:55.294Z,13.47
2022-12-09T13:02:40.700Z,12.33
2022-12-09T13:05:30.953Z,12.70
2022-12-09T13:08:06.164Z,12.43
2022-12-09T13:10:40.776Z,11.63
2022-12-09T13:13:47.277Z,13.13
2022-12-09T13:16:27.563Z,11.60
2022-12-09T13:19:18.241Z,12.33
2022-12-09T13:21:47.735Z,12.07
2022-12-09T13:25:29.385Z,11.30
2022-12-09T13:28:09.775Z,11.93
2022-12-09T13:30:53.841Z,13.00
2022-12-09T13:33:40.848Z,12.13
2022-12-09T13:36:37.551Z,12.57
2022-12-09T13:39:06.496Z,11.67
2022-12-09T13:41:55.226Z,12.40
2022-12-09T13:44:24.172Z,11.80
2022-12-09T13:46:52.697Z,12.47
2022-12-09T13:49:28.342Z,13.07
2022-12-09T13:51:57.382Z,12.13
2022-12-09T13:54:28.797Z,12.47
2022-12-09T13:57:25.726Z,13.17
2022-12-09T13:59:58.653Z,12.70
2022-12-09T14:02:34.849Z,12.97
2022-12-09T14:05:16.387Z,12.00
2022-12-09T14:07:54.127Z,11.37
2022-12-09T14:10:38.067Z,13.27
2022-12-09T14:13:29.202Z,11.10
2022-12-09T14:16:27.627Z,12.40
2022-12-09T14:18:57.511Z,12.33
2022-12-09T14:21:33.534Z,13.30
2022-12-09T14:24:21.869Z,12.67
2022-12-09T14:27:01.993Z,12.17
2022-12-09T14:30:01.751Z,11.93
2022-12-09T14:32:33.937Z,12.43
2022-12-09T14:35:10.764Z,11.70
2022-12-09T14:37:57.700Z,12.10
2022-12-09T14:40:44.138Z,12.33
2022-12-09T14:43:38.371Z,12.50
2022-12-09T14:46:35.012Z,11.93
2022-12-09T14:49:22.578Z,13.53
2022-12-09T14:51:58.815Z,12.33
2022-12-09T14:54:34.519Z,11.93
2022-12-09T14:57:11.643Z,12.40
2022-12-09T14:59:53.436Z,12.40
2022-12-09T15:02:32.649Z,12.47
2022-12-09T15:05:02.962Z,12.83
2022-12-09T15:07:35.806Z,11.40
2022-12-09T15:10:21.229Z,12.20
2022-12-09T15:12:56.721Z,12.23
2022-12-09T15:15:36.729Z,11.87
2022-12-09T15:18:22.946Z,12.77
2022-12-09T15:20:58.609Z,13.23
2022-12-09T15:23:40.608Z,13.53
2022-12-09T15:26:24.642Z,13.57
2022-12-09T15:28:56.646Z,12.47
2022-12-09T15:31:31.966Z,17.30
2022-12-09T15:34:12.063Z,12.73
2022-12-09T15:36:47.874Z,13.00
2022-12-09T15:39:32.559Z,13.83
2022-12-09T15:42:10.250Z,13.13
2022-12-09T15:45:08.392Z,13.97
2022-12-09T15:48:02.692Z,13.30
2022-12-09T15:50:46.311Z,13.30
2022-12-09T15:53:28.823Z,13.70
2022-12-09T15:56:24.621Z,14.07
2022-12-09T15:58:56.671Z,13.20
2022-12-09T16:01:30.840Z,12.70
2022-12-09T16:04:02.109Z,13.23
2022-12-09T16:06:36.742Z,13.53
2022-12-09T16:09:14.908Z,13.57
2022-12-09T16:11:55.520Z,14.40
2022-12-09T16:14:25.434Z,13.40
2022-12-09T16:17:02.393Z,14.00
2022-12-09T16:19:33.574Z,14.10
2022-12-09T16:22:16.744Z,14.00
2022-12-09T16:25:13.679Z,13.93
2022-12-09T16:27:39.322Z,14.57
2022-12-09T16:30:45.959Z,15.77
2022-12-09T16:33:24.322Z,15.03
2022-12-09T16:36:06.567Z,12.90
2022-12-09T16:38:37.261Z,13.77
2022-12-09T16:41:12.378Z,13.37
2022-12-09T16:43:56.913Z,13.53
2022-12-09T16:46:38.802Z,13.10
2022-12-09T16:49:08.392Z,15.33
2022-12-09T16:51:37.852Z,13.93
2022-12-09T16:54:20.062Z,13.60
2022-12-09T16:56:49.890Z,13.23
2022-12-09T16:59:19.787Z,13.33
2022-12-09T17:01:48.256Z,14.13
2022-12-09T17:06:51.203Z,12.50
2022-12-09T17:09:20.218Z,14.60
2022-12-09T17:11:49.472Z,14.53
2022-12-09T17:14:18.847Z,13.93
2022-12-09T17:16:47.380Z,14.93
2022-12-09T17:19:16.038Z,14.60
2022-12-09T17:21:44.852Z,14.10
2022-12-09T17:24:13.724Z,13.33
2022-12-09T17:26:42.231Z,14.20
2022-12-09T17:29:10.690Z,15.77
2022-12-09T17:31:39.295Z,15.33
2022-12-09T17:34:07.809Z,15.27
2022-12-09T17:36:36.379Z,14.30
2022-12-09T17:39:06.147Z,14.97
2022-12-09T17:41:34.676Z,15.60
2022-12-09T17:44:03.183Z,14.90
2022-12-09T17:46:31.928Z,15.40
2022-12-09T17:49:03.701Z,15.00
2022-12-09T17:51:36.021Z,15.90
2022-12-09T17:54:05.342Z,15.57
2022-12-09T17:56:33.859Z,16.23
2022-12-09T17:59:07.393Z,15.90
2022-12-09T18:01:37.574Z,15.20
2022-12-09T18:04:10.204Z,16.00
2022-12-09T18:06:44.913Z,14.60
2022-12-09T18:09:18.722Z,15.27
2022-12-09T18:11:47.940Z,16.23
2022-12-09T18:14:16.938Z,16.77
2022-12-09T18:16:46.550Z,16.03
2022-12-09T18:19:20.276Z,15.83
2022-12-09T18:21:48.783Z,15.77
2022-12-09T18:24:17.355Z,15.67
2022-12-09T18:26:46.168Z,15.37
2022-12-09T18:29:14.952Z,16.77
2022-12-09T18:31:45.720Z,16.17
2022-12-09T18:34:14.419Z,18.30
2022-12-09T18:36:42.995Z,16.80
2022-12-09T18:39:11.650Z,16.17
2022-12-09T18:41:40.171Z,18.13
2022-12-09T18:44:09.140Z,16.40
2022-12-09T18:46:41.513Z,17.40
2022-12-09T18:49:19.182Z,17.60
2022-12-09T18:51:49.856Z,15.57
2022-12-09T18:54:26.486Z,16.57
2022-12-09T18:56:55.823Z,16.27
2022-12-09T18:59:25.491Z,16.97
2022-12-09T19:01:54.628Z,16.67
2022-12-09T19:04:28.078Z,17.20
2022-12-09T19:07:00.140Z,15.93
2022-12-09T19:09:33.583Z,17.37
2022-12-09T19:12:30.152Z,17.40
2022-12-09T19:14:52.943Z,16.57
2022-12-09T19:17:21.822Z,16.50
2022-12-09T19:19:50.767Z,16.77
2022-12-09T19:22:19.223Z,16.37
2022-12-09T19:24:47.667Z,16.27
2022-12-09T19:27:16.143Z,16.00
2022-12-09T19:29:45.437Z,15.70
2022-12-09T19:32:36.589Z,16.33
2022-12-09T19:35:02.359Z,17.37
2022-12-09T19:37:30.837Z,15.70
2022-12-09T19:39:59.606Z,16.37
2022-12-09T19:42:28.160Z,15.67
2022-12-09T19:45:01.797Z,16.20
2022-12-09T19:47:30.914Z,17.43
2022-12-09T19:49:59.493Z,16.03
2022-12-09T19:52:28.078Z,15.23
2022-12-09T19:54:56.562Z,17.10
2022-12-09T19:57:25.027Z,15.27
2022-12-09T19:59:53.521Z,16.60
2022-12-09T20:02:22.164Z,17.23
2022-12-09T20:04:51.368Z,15.73
2022-12-09T20:07:21.144Z,16.03
2022-12-09T20:09:49.851Z,17.03
2022-12-09T20:12:18.541Z,17.07
2022-12-09T20:14:47.090Z,16.03
2022-12-09T20:17:16.751Z,16.93
2022-12-09T20:19:45.222Z,15.77
2022-12-09T20:22:13.830Z,15.73
2022-12-09T20:24:43.341Z,16.63
2022-12-09T20:27:11.832Z,16.63
2022-12-09T20:29:40.554Z,17.60
2022-12-09T20:32:10.085Z,18.27
2022-12-09T20:34:38.696Z,17.67
2022-12-09T20:37:07.807Z,18.70
2022-12-09T20:39:36.408Z,17.50
2022-12-09T20:42:05.122Z,16.97
2022-12-09T20:44:33.708Z,18.20
2022-12-09T20:47:02.231Z,17.87
2022-12-09T20:49:30.787Z,19.50
2022-12-09T20:51:59.741Z,18.50
2022-12-09T20:54:28.335Z,18.70
2022-12-09T20:56:57.107Z,19.67
2022-12-09T20:59:25.800Z,19.13
2022-12-09T21:01:55.879Z,19.00
2022-12-09T21:04:24.420Z,18.33
2022-12-09T21:06:53.017Z,19.60
2022-12-09T21:09:24.931Z,19.97
2022-12-09T21:11:53.728Z,16.87
2022-12-09T21:14:24.048Z,19.60
2022-12-09T21:16:55.394Z,19.47
2022-12-09T21:19:25.837Z,19.13
2022-12-09T21:21:54.751Z,20.63
2022-12-09T21:24:24.850Z,20.17
2022-12-09T21:26:56.090Z,18.93
2022-12-09T21:29:31.584Z,19.17
2022-12-09T21:32:01.313Z,18.27
2022-12-09T21:34:29.872Z,18.27
2022-12-09T21:36:58.348Z,18.40
2022-12-09T21:39:28.058Z,16.37
2022-12-09T21:41:56.622Z,16.77
2022-12-09T21:44:27.061Z,18.73
2022-12-09T21:46:55.856Z,19.00
2022-12-09T21:49:24.515Z,17.07
2022-12-09T21:51:53.146Z,17.63
2022-12-09T21:54:21.697Z,17.83
2022-12-09T21:56:50.304Z,15.63
2022-12-09T21:59:19.070Z,17.03
2022-12-09T22:01:47.725Z,18.00
2022-12-09T22:04:17.991Z,19.17
2022-12-09T22:06:50.060Z,17.40
2022-12-09T22:09:21.194Z,18.33
2022-12-09T22:11:50.157Z,18.93
2022-12-09T22:14:18.656Z,20.27
2022-12-09T22:16:47.529Z,17.43
2022-12-09T22:19:19.946Z,18.80
2022-12-09T22:21:49.427Z,20.23
2022-12-09T22:24:18.710Z,19.47
2022-12-09T22:26:48.256Z,19.57
2022-12-09T22:29:18.362Z,19.40
2022-12-09T22:31:47.874Z,19.10
2022-12-09T22:34:20.369Z,17.47
2022-12-09T22:36:50.796Z,19.63
2022-12-09T22:39:22.935Z,17.87
2022-12-09T22:41:51.677Z,18.83
2022-12-09T22:44:21.504Z,19.53
2022-12-09T22:46:49.988Z,18.50
2022-12-09T22:49:18.789Z,18.27
2022-12-09T22:51:47.876Z,18.03
2022-12-09T22:54:17.045Z,18.83
2022-12-09T22:56:46.240Z,17.50
2022-12-09T22:59:15.229Z,17.73
2022-12-09T23:01:51.343Z,18.13
2022-12-09T23:04:22.753Z,17.63
2022-12-09T23:06:51.769Z,18.63
2022-12-09T23:09:25.198Z,19.20
2022-12-09T23:11:54.262Z,19.10
2022-12-09T23:14:22.889Z,17.90
2022-12-09T23:16:51.322Z,16.40
2022-12-09T23:19:20.036Z,17.70
2022-12-09T23:21:56.788Z,17.30
2022-12-09T23:24:25.326Z,16.87
2022-12-09T23:26:55.071Z,16.50
2022-12-09T23:29:23.943Z,15.13
2022-12-09T23:31:52.600Z,16.27
2022-12-09T23:34:21.409Z,16.30
2022-12-09T23:36:49.826Z,16.80
2022-12-09T23:39:19.740Z,17.13
2022-12-09T23:41:49.704Z,17.33
2022-12-09T23:44:20.204Z,17.97
2022-12-09T23:46:48.890Z,17.10
2022-12-09T23:49:18.227Z,16.80
2022-12-09T23:51:47.052Z,18.30
2022-12-09T23:54:27.307Z,17.73
2022-12-09T23:56:55.741Z,17.53
2022-12-09T23:59:24.568Z,17.50
